Impacts METAR Board
IDs:

KSLC - Salt Lake City Intl, UT, US

Updated at: 1700 UTC 26 Apr 2018
Potential Impact None Slight Moderate High
Time 26/05Z 26/06Z 26/07Z 26/08Z 26/09Z 26/10Z 26/11Z 26/12Z 26/13Z 26/14Z 26/15Z 26/16Z 26/17Z
Temp57 55 54 52 51 51 50 49 49 53 59 63 66
Dewpt36 35 38 38 36 37 37 36 35 34 35 33 33
Altim30.10 30.11 30.13 30.14 30.13 30.13 30.14 30.15 30.16 30.18 30.19 30.18 30.19
VIS10 10 10 10 10 10 10 10 10 10 10 10 10
CIG-- -- -- -- -- -- -- -- -- -- -- -- --
CoverSCTSCTSCTSCTFEWFEWFEWFEWCLRCLRCLRCLRCLR
FltCatVFRVFRVFRVFRVFRVFRVFRVFRVFRVFRVFRVFRVFR
WX--------------------------
WDir00250240230014018014015000290
WSpd0 0 3 5 5 0 3 4 5 4 0 3 5
WGst-- -- -- -- -- -- -- -- -- -- -- -- --
Raw hourly METARs
KSLC 260454Z 00000KT 10SM FEW200 SCT250 14/02 A3010 RMK AO2 SLP161 T01390022
KSLC 260554Z 00000KT 10SM FEW200 SCT250 13/02 A3011 RMK AO2 SLP163 T01280017 10228 20122 51010
KSLC 260654Z 25003KT 10SM FEW200 SCT250 12/03 A3013 RMK AO2 SLP169 T01220033 402330089
KSLC 260754Z 24005KT 10SM FEW200 SCT250 11/03 A3014 RMK AO2 SLP173 T01110033
KSLC 260854Z 23005KT 10SM FEW200 FEW250 11/02 A3013 RMK AO2 SLP169 T01060022 50007
KSLC 260954Z 00000KT 10SM FEW200 FEW250 11/03 A3013 RMK AO2 SLP170 T01060028
KSLC 261054Z 14003KT 10SM FEW200 FEW250 10/03 A3014 RMK AO2 SLP174 T01000028
KSLC 261154Z 18004KT 10SM FEW200 09/02 A3015 RMK AO2 SLP175 T00940022 10128 20094 53004
KSLC 261254Z 14005KT 10SM CLR 09/02 A3016 RMK AO2 SLP182 T00940017
KSLC 261354Z COR 15004KT 10SM CLR 12/01 A3018 RMK AO2 SLP187 T01170011
KSLC 261454Z COR 00000KT 10SM CLR 15/02 A3019 RMK AO2 SLP185 T01500017 51012
KSLC 261554Z VRB03KT 10SM CLR 17/01 A3018 RMK AO2 SLP188 T01720006
KSLC 261654Z 29005KT 10SM CLR 19/01 A3019 RMK AO2 SLP187 T01890006



Page loaded:  17:12 UTC  |   10:12 AM Pacific  |   11:12 AM Mountain  |   12:12 PM Central  |   01:12 PM Eastern

 

ADVISORIES

FORECASTS

FORECASTS

OBSERVATIONS

USER TOOLS

ABOUT US